Aveley, United Kingdom
Current Conditions -  °F | °C
As of 12:50 PM on Friday 24 Oct 2014 (Local Time) from EGLC Reporting Station
Broken Clouds Broken Clouds  
Wind Chill: 63°   Ceiling: 2000
Heat Index: 63°   Visibility: 6mi
Dew Point: 55°   Wind: 9mph
Humidity: 77%   Direction: 230°SW
Pressure: 29.94"   Gusts: NA
Location:  51.5°N, 0.25°E
Report Text: EGLC 241150Z 23008KT 9999 FEW014 BKN020 17/13 Q1014
Loading
Personal Weather Stations






























Interactive Weather Map
Tropical Storm Tracking
New forecast layout! Learn more

10-Day Weather Forecast

Advertisements
Track Severe Weather on mobile